sensor_id;sensor_type;location;lat;lon;timestamp;P1;durP1;ratioP1;P2;durP2;ratioP2
8050;SDS011;4068;42.158;24.732;2023-09-19T00:02:01;6.88;;;5.47;;
8050;SDS011;4068;42.158;24.732;2023-09-19T00:04:31;7.70;;;6.50;;
8050;SDS011;4068;42.158;24.732;2023-09-19T00:06:57;12.77;;;6.57;;
8050;SDS011;4068;42.158;24.732;2023-09-19T00:09:23;8.07;;;6.07;;
8050;SDS011;4068;42.158;24.732;2023-09-19T00:11:51;7.18;;;5.85;;
8050;SDS011;4068;42.158;24.732;2023-09-19T00:14:16;8.55;;;6.32;;
8050;SDS011;4068;42.158;24.732;2023-09-19T00:16:42;7.88;;;6.60;;
8050;SDS011;4068;42.158;24.732;2023-09-19T00:19:07;7.43;;;6.35;;
8050;SDS011;4068;42.158;24.732;2023-09-19T00:21:34;7.88;;;6.22;;
8050;SDS011;4068;42.158;24.732;2023-09-19T00:24:00;8.93;;;6.43;;
8050;SDS011;4068;42.158;24.732;2023-09-19T00:26:26;12.27;;;7.25;;
8050;SDS011;4068;42.158;24.732;2023-09-19T00:28:55;9.27;;;6.30;;
8050;SDS011;4068;42.158;24.732;2023-09-19T00:31:22;11.00;;;6.43;;
8050;SDS011;4068;42.158;24.732;2023-09-19T00:33:48;7.13;;;6.07;;
8050;SDS011;4068;42.158;24.732;2023-09-19T00:36:13;7.90;;;6.63;;
8050;SDS011;4068;42.158;24.732;2023-09-19T00:38:39;9.32;;;6.07;;
8050;SDS011;4068;42.158;24.732;2023-09-19T00:41:04;8.45;;;6.32;;
8050;SDS011;4068;42.158;24.732;2023-09-19T00:43:30;8.20;;;5.63;;
8050;SDS011;4068;42.158;24.732;2023-09-19T00:45:59;7.63;;;5.95;;
8050;SDS011;4068;42.158;24.732;2023-09-19T00:48:26;7.40;;;6.20;;
8050;SDS011;4068;42.158;24.732;2023-09-19T00:50:53;8.35;;;5.93;;
8050;SDS011;4068;42.158;24.732;2023-09-19T00:53:20;8.32;;;6.15;;
8050;SDS011;4068;42.158;24.732;2023-09-19T00:55:49;8.52;;;6.18;;
8050;SDS011;4068;42.158;24.732;2023-09-19T00:58:16;10.55;;;6.03;;
8050;SDS011;4068;42.158;24.732;2023-09-19T01:00:43;6.47;;;5.75;;
8050;SDS011;4068;42.158;24.732;2023-09-19T01:03:10;7.50;;;6.07;;
8050;SDS011;4068;42.158;24.732;2023-09-19T01:05:38;11.48;;;7.05;;
8050;SDS011;4068;42.158;24.732;2023-09-19T01:08:04;10.20;;;6.28;;
8050;SDS011;4068;42.158;24.732;2023-09-19T01:10:29;12.63;;;6.68;;
8050;SDS011;4068;42.158;24.732;2023-09-19T01:13:03;9.98;;;6.78;;
8050;SDS011;4068;42.158;24.732;2023-09-19T01:21:00;10.52;;;6.88;;
8050;SDS011;4068;42.158;24.732;2023-09-19T01:29:12;9.90;;;5.95;;
8050;SDS011;4068;42.158;24.732;2023-09-19T01:31:57;10.48;;;6.65;;
8050;SDS011;4068;42.158;24.732;2023-09-19T01:34:42;7.57;;;6.28;;
8050;SDS011;4068;42.158;24.732;2023-09-19T01:37:21;9.57;;;7.20;;
8050;SDS011;4068;42.158;24.732;2023-09-19T01:39:55;11.50;;;7.28;;
8050;SDS011;4068;42.158;24.732;2023-09-19T01:48:43;10.02;;;6.60;;
8050;SDS011;4068;42.158;24.732;2023-09-19T01:50:55;9.27;;;7.32;;
8050;SDS011;4068;42.158;24.732;2023-09-19T01:59:28;7.97;;;6.75;;
8050;SDS011;4068;42.158;24.732;2023-09-19T02:02:00;10.77;;;7.43;;
8050;SDS011;4068;42.158;24.732;2023-09-19T02:04:27;10.15;;;7.25;;
8050;SDS011;4068;42.158;24.732;2023-09-19T02:06:53;14.80;;;6.72;;
8050;SDS011;4068;42.158;24.732;2023-09-19T02:09:18;11.38;;;6.90;;
8050;SDS011;4068;42.158;24.732;2023-09-19T02:11:44;11.82;;;7.00;;
8050;SDS011;4068;42.158;24.732;2023-09-19T02:14:09;9.65;;;7.07;;
8050;SDS011;4068;42.158;24.732;2023-09-19T02:16:35;8.63;;;6.57;;
8050;SDS011;4068;42.158;24.732;2023-09-19T02:19:00;10.23;;;6.82;;
8050;SDS011;4068;42.158;24.732;2023-09-19T02:21:30;11.63;;;7.10;;
8050;SDS011;4068;42.158;24.732;2023-09-19T02:23:55;9.50;;;6.97;;
8050;SDS011;4068;42.158;24.732;2023-09-19T02:26:21;12.48;;;6.60;;
8050;SDS011;4068;42.158;24.732;2023-09-19T02:28:49;8.98;;;6.75;;
8050;SDS011;4068;42.158;24.732;2023-09-19T02:31:15;7.68;;;6.38;;
8050;SDS011;4068;42.158;24.732;2023-09-19T02:33:41;7.68;;;6.32;;
8050;SDS011;4068;42.158;24.732;2023-09-19T02:36:07;9.15;;;6.20;;
8050;SDS011;4068;42.158;24.732;2023-09-19T02:38:33;10.57;;;6.45;;
8050;SDS011;4068;42.158;24.732;2023-09-19T02:40:59;8.73;;;6.07;;
8050;SDS011;4068;42.158;24.732;2023-09-19T02:43:24;9.98;;;6.68;;
8050;SDS011;4068;42.158;24.732;2023-09-19T02:45:50;8.15;;;6.28;;
8050;SDS011;4068;42.158;24.732;2023-09-19T02:48:18;9.20;;;6.22;;
8050;SDS011;4068;42.158;24.732;2023-09-19T02:50:44;9.55;;;5.93;;
8050;SDS011;4068;42.158;24.732;2023-09-19T02:53:10;8.60;;;6.60;;
8050;SDS011;4068;42.158;24.732;2023-09-19T02:55:38;12.10;;;6.20;;
8050;SDS011;4068;42.158;24.732;2023-09-19T02:58:05;11.30;;;6.57;;
8050;SDS011;4068;42.158;24.732;2023-09-19T03:00:33;15.38;;;6.50;;
8050;SDS011;4068;42.158;24.732;2023-09-19T03:03:01;9.13;;;6.88;;
8050;SDS011;4068;42.158;24.732;2023-09-19T03:05:27;8.48;;;6.53;;
8050;SDS011;4068;42.158;24.732;2023-09-19T03:07:56;12.32;;;6.97;;
8050;SDS011;4068;42.158;24.732;2023-09-19T03:10:21;15.50;;;8.35;;
8050;SDS011;4068;42.158;24.732;2023-09-19T03:12:48;10.48;;;7.60;;
8050;SDS011;4068;42.158;24.732;2023-09-19T03:15:14;9.85;;;6.97;;
8050;SDS011;4068;42.158;24.732;2023-09-19T03:17:46;18.75;;;7.50;;
8050;SDS011;4068;42.158;24.732;2023-09-19T03:20:13;10.75;;;7.20;;
8050;SDS011;4068;42.158;24.732;2023-09-19T03:22:41;14.00;;;7.32;;
8050;SDS011;4068;42.158;24.732;2023-09-19T03:25:07;10.15;;;6.55;;
8050;SDS011;4068;42.158;24.732;2023-09-19T03:27:35;8.77;;;6.28;;
8050;SDS011;4068;42.158;24.732;2023-09-19T03:30:01;16.23;;;7.35;;
8050;SDS011;4068;42.158;24.732;2023-09-19T03:32:31;9.32;;;6.43;;
8050;SDS011;4068;42.158;24.732;2023-09-19T03:34:57;11.88;;;6.97;;
8050;SDS011;4068;42.158;24.732;2023-09-19T03:37:22;11.43;;;7.38;;
8050;SDS011;4068;42.158;24.732;2023-09-19T03:39:48;9.75;;;6.90;;
8050;SDS011;4068;42.158;24.732;2023-09-19T03:42:13;11.80;;;7.88;;
8050;SDS011;4068;42.158;24.732;2023-09-19T03:44:39;12.20;;;7.75;;
8050;SDS011;4068;42.158;24.732;2023-09-19T03:47:04;13.52;;;7.55;;
8050;SDS011;4068;42.158;24.732;2023-09-19T03:49:30;13.45;;;8.25;;
8050;SDS011;4068;42.158;24.732;2023-09-19T03:51:55;12.15;;;7.50;;
8050;SDS011;4068;42.158;24.732;2023-09-19T03:54:21;12.75;;;8.20;;
8050;SDS011;4068;42.158;24.732;2023-09-19T03:56:46;12.25;;;8.20;;
8050;SDS011;4068;42.158;24.732;2023-09-19T03:59:12;19.50;;;8.75;;
8050;SDS011;4068;42.158;24.732;2023-09-19T04:01:37;13.38;;;8.50;;
8050;SDS011;4068;42.158;24.732;2023-09-19T04:04:06;19.17;;;10.27;;
8050;SDS011;4068;42.158;24.732;2023-09-19T04:06:34;22.77;;;10.13;;
8050;SDS011;4068;42.158;24.732;2023-09-19T04:09:00;15.85;;;9.18;;
8050;SDS011;4068;42.158;24.732;2023-09-19T04:11:27;14.73;;;9.30;;
8050;SDS011;4068;42.158;24.732;2023-09-19T04:13:52;16.83;;;9.35;;
8050;SDS011;4068;42.158;24.732;2023-09-19T04:16:17;14.00;;;8.50;;
8050;SDS011;4068;42.158;24.732;2023-09-19T04:18:43;18.92;;;8.45;;
8050;SDS011;4068;42.158;24.732;2023-09-19T04:21:09;17.65;;;9.10;;
8050;SDS011;4068;42.158;24.732;2023-09-19T04:23:34;15.18;;;8.98;;
8050;SDS011;4068;42.158;24.732;2023-09-19T04:26:00;12.02;;;8.45;;
8050;SDS011;4068;42.158;24.732;2023-09-19T04:28:25;14.45;;;8.52;;
8050;SDS011;4068;42.158;24.732;2023-09-19T04:30:52;17.80;;;9.20;;
8050;SDS011;4068;42.158;24.732;2023-09-19T04:33:18;21.02;;;9.38;;
8050;SDS011;4068;42.158;24.732;2023-09-19T04:35:44;13.60;;;8.13;;
8050;SDS011;4068;42.158;24.732;2023-09-19T04:38:09;12.98;;;7.90;;
8050;SDS011;4068;42.158;24.732;2023-09-19T04:40:35;11.15;;;8.35;;
8050;SDS011;4068;42.158;24.732;2023-09-19T04:43:00;14.30;;;8.55;;
8050;SDS011;4068;42.158;24.732;2023-09-19T04:45:26;11.95;;;7.97;;
8050;SDS011;4068;42.158;24.732;2023-09-19T04:47:53;10.85;;;7.78;;
8050;SDS011;4068;42.158;24.732;2023-09-19T04:50:19;10.80;;;7.10;;
8050;SDS011;4068;42.158;24.732;2023-09-19T04:52:50;14.77;;;8.45;;
8050;SDS011;4068;42.158;24.732;2023-09-19T04:55:16;13.40;;;8.75;;
8050;SDS011;4068;42.158;24.732;2023-09-19T04:57:47;18.73;;;8.55;;
8050;SDS011;4068;42.158;24.732;2023-09-19T05:00:17;11.38;;;6.95;;
8050;SDS011;4068;42.158;24.732;2023-09-19T05:02:44;8.80;;;7.20;;
8050;SDS011;4068;42.158;24.732;2023-09-19T05:05:11;10.88;;;6.88;;
8050;SDS011;4068;42.158;24.732;2023-09-19T05:07:38;13.07;;;6.45;;
8050;SDS011;4068;42.158;24.732;2023-09-19T05:10:04;10.15;;;6.82;;
8050;SDS011;4068;42.158;24.732;2023-09-19T05:12:32;10.25;;;6.43;;
8050;SDS011;4068;42.158;24.732;2023-09-19T05:14:59;11.90;;;7.18;;
8050;SDS011;4068;42.158;24.732;2023-09-19T05:17:26;10.25;;;7.00;;
8050;SDS011;4068;42.158;24.732;2023-09-19T05:19:52;12.77;;;7.18;;
8050;SDS011;4068;42.158;24.732;2023-09-19T05:22:17;14.30;;;6.70;;
8050;SDS011;4068;42.158;24.732;2023-09-19T05:24:43;15.18;;;7.20;;
8050;SDS011;4068;42.158;24.732;2023-09-19T05:27:12;12.50;;;6.90;;
8050;SDS011;4068;42.158;24.732;2023-09-19T05:29:37;14.40;;;7.43;;
8050;SDS011;4068;42.158;24.732;2023-09-19T05:32:03;9.80;;;7.60;;
8050;SDS011;4068;42.158;24.732;2023-09-19T05:34:30;11.52;;;6.70;;
8050;SDS011;4068;42.158;24.732;2023-09-19T05:36:56;12.73;;;6.45;;
8050;SDS011;4068;42.158;24.732;2023-09-19T05:39:21;13.40;;;6.63;;
8050;SDS011;4068;42.158;24.732;2023-09-19T05:41:47;9.57;;;7.03;;
8050;SDS011;4068;42.158;24.732;2023-09-19T05:44:13;9.57;;;6.03;;
8050;SDS011;4068;42.158;24.732;2023-09-19T05:46:39;15.45;;;7.43;;
8050;SDS011;4068;42.158;24.732;2023-09-19T05:49:05;11.38;;;7.53;;
8050;SDS011;4068;42.158;24.732;2023-09-19T05:51:30;12.43;;;6.97;;
8050;SDS011;4068;42.158;24.732;2023-09-19T05:53:56;10.48;;;6.88;;
8050;SDS011;4068;42.158;24.732;2023-09-19T05:56:22;11.13;;;7.43;;
8050;SDS011;4068;42.158;24.732;2023-09-19T05:58:48;12.23;;;6.35;;
8050;SDS011;4068;42.158;24.732;2023-09-19T06:01:14;9.75;;;6.80;;
8050;SDS011;4068;42.158;24.732;2023-09-19T06:03:40;10.00;;;7.00;;
8050;SDS011;4068;42.158;24.732;2023-09-19T06:06:05;13.18;;;6.82;;
8050;SDS011;4068;42.158;24.732;2023-09-19T06:08:31;9.93;;;6.60;;
8050;SDS011;4068;42.158;24.732;2023-09-19T06:10:59;10.88;;;6.57;;
8050;SDS011;4068;42.158;24.732;2023-09-19T06:13:27;9.57;;;6.43;;
8050;SDS011;4068;42.158;24.732;2023-09-19T06:15:54;9.32;;;6.32;;
8050;SDS011;4068;42.158;24.732;2023-09-19T06:18:23;10.43;;;6.10;;
8050;SDS011;4068;42.158;24.732;2023-09-19T06:20:51;13.07;;;6.40;;
8050;SDS011;4068;42.158;24.732;2023-09-19T06:23:17;13.82;;;5.97;;
8050;SDS011;4068;42.158;24.732;2023-09-19T06:25:45;16.30;;;6.30;;
8050;SDS011;4068;42.158;24.732;2023-09-19T06:28:10;14.15;;;6.57;;
8050;SDS011;4068;42.158;24.732;2023-09-19T06:30:37;12.10;;;5.85;;
8050;SDS011;4068;42.158;24.732;2023-09-19T06:33:05;11.98;;;6.18;;
8050;SDS011;4068;42.158;24.732;2023-09-19T06:35:32;9.43;;;5.97;;
8050;SDS011;4068;42.158;24.732;2023-09-19T06:38:03;15.27;;;6.72;;
8050;SDS011;4068;42.158;24.732;2023-09-19T06:40:28;5.95;;;5.35;;
8050;SDS011;4068;42.158;24.732;2023-09-19T06:42:56;8.50;;;4.97;;
8050;SDS011;4068;42.158;24.732;2023-09-19T06:45:22;7.25;;;5.15;;
8050;SDS011;4068;42.158;24.732;2023-09-19T06:47:51;6.47;;;5.20;;
8050;SDS011;4068;42.158;24.732;2023-09-19T06:50:17;12.57;;;5.30;;
8050;SDS011;4068;42.158;24.732;2023-09-19T06:52:45;8.15;;;5.30;;
8050;SDS011;4068;42.158;24.732;2023-09-19T06:55:14;10.43;;;5.50;;
8050;SDS011;4068;42.158;24.732;2023-09-19T06:57:44;8.32;;;5.40;;
8050;SDS011;4068;42.158;24.732;2023-09-19T07:00:10;9.30;;;6.32;;
8050;SDS011;4068;42.158;24.732;2023-09-19T07:05:26;7.93;;;5.30;;
8050;SDS011;4068;42.158;24.732;2023-09-19T07:07:56;11.18;;;5.38;;
8050;SDS011;4068;42.158;24.732;2023-09-19T07:10:26;7.65;;;4.70;;
8050;SDS011;4068;42.158;24.732;2023-09-19T07:15:24;7.55;;;5.32;;
8050;SDS011;4068;42.158;24.732;2023-09-19T07:17:51;5.32;;;4.75;;
8050;SDS011;4068;42.158;24.732;2023-09-19T07:20:18;5.72;;;4.80;;
8050;SDS011;4068;42.158;24.732;2023-09-19T07:22:44;5.72;;;4.88;;
8050;SDS011;4068;42.158;24.732;2023-09-19T07:25:09;4.72;;;4.18;;
8050;SDS011;4068;42.158;24.732;2023-09-19T07:27:35;6.13;;;4.70;;
8050;SDS011;4068;42.158;24.732;2023-09-19T07:30:00;8.93;;;5.18;;
8050;SDS011;4068;42.158;24.732;2023-09-19T07:32:26;9.23;;;4.97;;
8050;SDS011;4068;42.158;24.732;2023-09-19T07:34:51;10.20;;;4.80;;
8050;SDS011;4068;42.158;24.732;2023-09-19T07:37:16;7.55;;;4.72;;
8050;SDS011;4068;42.158;24.732;2023-09-19T07:39:42;6.45;;;4.82;;
8050;SDS011;4068;42.158;24.732;2023-09-19T07:42:08;6.57;;;4.75;;
8050;SDS011;4068;42.158;24.732;2023-09-19T07:44:35;9.30;;;5.05;;
8050;SDS011;4068;42.158;24.732;2023-09-19T07:47:01;5.32;;;4.35;;
8050;SDS011;4068;42.158;24.732;2023-09-19T07:49:28;6.90;;;4.57;;
8050;SDS011;4068;42.158;24.732;2023-09-19T07:51:54;5.63;;;4.32;;
8050;SDS011;4068;42.158;24.732;2023-09-19T07:54:19;6.63;;;5.00;;
8050;SDS011;4068;42.158;24.732;2023-09-19T07:56:46;6.47;;;4.50;;
8050;SDS011;4068;42.158;24.732;2023-09-19T07:59:12;8.65;;;5.13;;
8050;SDS011;4068;42.158;24.732;2023-09-19T08:01:38;7.03;;;4.63;;
8050;SDS011;4068;42.158;24.732;2023-09-19T08:04:06;10.45;;;4.60;;
8050;SDS011;4068;42.158;24.732;2023-09-19T08:06:32;6.38;;;4.72;;
8050;SDS011;4068;42.158;24.732;2023-09-19T08:08:57;8.52;;;4.65;;
8050;SDS011;4068;42.158;24.732;2023-09-19T08:11:23;6.95;;;4.63;;
8050;SDS011;4068;42.158;24.732;2023-09-19T08:13:49;11.98;;;6.05;;
8050;SDS011;4068;42.158;24.732;2023-09-19T08:16:15;8.52;;;5.22;;
8050;SDS011;4068;42.158;24.732;2023-09-19T08:18:43;5.90;;;4.32;;
8050;SDS011;4068;42.158;24.732;2023-09-19T08:21:13;9.10;;;5.20;;
8050;SDS011;4068;42.158;24.732;2023-09-19T08:23:39;7.57;;;4.90;;
8050;SDS011;4068;42.158;24.732;2023-09-19T08:26:05;9.48;;;4.72;;
8050;SDS011;4068;42.158;24.732;2023-09-19T08:28:33;5.82;;;4.93;;
8050;SDS011;4068;42.158;24.732;2023-09-19T08:31:05;10.82;;;5.38;;
8050;SDS011;4068;42.158;24.732;2023-09-19T08:33:35;8.40;;;5.07;;
8050;SDS011;4068;42.158;24.732;2023-09-19T08:36:01;7.80;;;4.80;;
8050;SDS011;4068;42.158;24.732;2023-09-19T08:38:31;11.60;;;4.60;;
8050;SDS011;4068;42.158;24.732;2023-09-19T08:41:00;8.98;;;5.18;;
8050;SDS011;4068;42.158;24.732;2023-09-19T08:43:29;5.75;;;4.60;;
8050;SDS011;4068;42.158;24.732;2023-09-19T08:46:02;10.38;;;5.22;;
8050;SDS011;4068;42.158;24.732;2023-09-19T08:48:34;9.10;;;5.30;;
8050;SDS011;4068;42.158;24.732;2023-09-19T08:51:07;8.80;;;4.38;;
8050;SDS011;4068;42.158;24.732;2023-09-19T08:56:19;9.38;;;5.07;;
8050;SDS011;4068;42.158;24.732;2023-09-19T08:58:51;5.95;;;5.05;;
8050;SDS011;4068;42.158;24.732;2023-09-19T09:01:20;9.45;;;4.90;;
8050;SDS011;4068;42.158;24.732;2023-09-19T09:03:55;5.55;;;4.65;;
8050;SDS011;4068;42.158;24.732;2023-09-19T09:06:22;8.25;;;5.32;;
8050;SDS011;4068;42.158;24.732;2023-09-19T09:08:52;8.23;;;5.05;;
8050;SDS011;4068;42.158;24.732;2023-09-19T09:11:18;7.53;;;5.10;;
8050;SDS011;4068;42.158;24.732;2023-09-19T09:13:44;10.13;;;5.07;;
8050;SDS011;4068;42.158;24.732;2023-09-19T09:16:11;8.75;;;4.55;;
8050;SDS011;4068;42.158;24.732;2023-09-19T09:18:38;9.00;;;5.28;;
8050;SDS011;4068;42.158;24.732;2023-09-19T09:21:04;9.00;;;5.68;;
8050;SDS011;4068;42.158;24.732;2023-09-19T09:23:30;10.00;;;6.07;;
8050;SDS011;4068;42.158;24.732;2023-09-19T09:25:58;4.65;;;4.25;;
8050;SDS011;4068;42.158;24.732;2023-09-19T09:28:28;16.25;;;5.97;;
8050;SDS011;4068;42.158;24.732;2023-09-19T09:30:56;7.55;;;5.03;;
8050;SDS011;4068;42.158;24.732;2023-09-19T09:33:23;10.10;;;5.15;;
8050;SDS011;4068;42.158;24.732;2023-09-19T09:35:53;14.32;;;5.68;;
8050;SDS011;4068;42.158;24.732;2023-09-19T09:38:24;7.13;;;5.18;;
8050;SDS011;4068;42.158;24.732;2023-09-19T09:40:57;11.40;;;5.05;;
8050;SDS011;4068;42.158;24.732;2023-09-19T09:43:35;9.23;;;5.90;;
8050;SDS011;4068;42.158;24.732;2023-09-19T09:46:12;10.00;;;4.78;;
8050;SDS011;4068;42.158;24.732;2023-09-19T09:51:42;8.07;;;4.90;;
8050;SDS011;4068;42.158;24.732;2023-09-19T09:54:57;5.93;;;4.70;;
8050;SDS011;4068;42.158;24.732;2023-09-19T09:57:30;6.88;;;4.40;;
8050;SDS011;4068;42.158;24.732;2023-09-19T09:59:57;6.13;;;5.20;;
8050;SDS011;4068;42.158;24.732;2023-09-19T10:02:30;14.70;;;5.32;;
8050;SDS011;4068;42.158;24.732;2023-09-19T10:05:15;12.75;;;5.72;;
8050;SDS011;4068;42.158;24.732;2023-09-19T10:07:44;13.27;;;5.57;;
8050;SDS011;4068;42.158;24.732;2023-09-19T10:10:37;9.23;;;5.35;;
8050;SDS011;4068;42.158;24.732;2023-09-19T10:13:09;7.90;;;5.32;;
8050;SDS011;4068;42.158;24.732;2023-09-19T10:15:40;9.15;;;5.05;;
8050;SDS011;4068;42.158;24.732;2023-09-19T10:18:14;6.75;;;4.43;;
8050;SDS011;4068;42.158;24.732;2023-09-19T10:20:43;6.05;;;4.07;;
8050;SDS011;4068;42.158;24.732;2023-09-19T10:23:11;7.85;;;4.72;;
8050;SDS011;4068;42.158;24.732;2023-09-19T10:25:40;10.30;;;5.18;;
8050;SDS011;4068;42.158;24.732;2023-09-19T10:28:10;10.13;;;5.00;;
8050;SDS011;4068;42.158;24.732;2023-09-19T10:30:38;9.10;;;4.50;;
8050;SDS011;4068;42.158;24.732;2023-09-19T10:33:09;7.45;;;4.55;;
8050;SDS011;4068;42.158;24.732;2023-09-19T10:35:37;5.88;;;4.78;;
8050;SDS011;4068;42.158;24.732;2023-09-19T10:38:09;7.90;;;4.70;;
8050;SDS011;4068;42.158;24.732;2023-09-19T10:40:36;14.68;;;5.97;;
8050;SDS011;4068;42.158;24.732;2023-09-19T10:43:08;8.35;;;5.25;;
8050;SDS011;4068;42.158;24.732;2023-09-19T10:45:46;9.40;;;4.78;;
8050;SDS011;4068;42.158;24.732;2023-09-19T10:48:14;10.82;;;4.30;;
8050;SDS011;4068;42.158;24.732;2023-09-19T10:56:09;12.15;;;7.10;;
8050;SDS011;4068;42.158;24.732;2023-09-19T10:58:42;10.40;;;5.43;;
8050;SDS011;4068;42.158;24.732;2023-09-19T11:01:09;9.10;;;4.88;;
8050;SDS011;4068;42.158;24.732;2023-09-19T11:03:40;5.97;;;4.13;;
8050;SDS011;4068;42.158;24.732;2023-09-19T11:06:10;7.97;;;4.55;;
8050;SDS011;4068;42.158;24.732;2023-09-19T11:11:46;10.50;;;4.57;;
8050;SDS011;4068;42.158;24.732;2023-09-19T11:14:28;7.63;;;4.60;;
8050;SDS011;4068;42.158;24.732;2023-09-19T11:30:37;10.52;;;5.15;;
8050;SDS011;4068;42.158;24.732;2023-09-19T11:33:21;4.93;;;3.67;;
8050;SDS011;4068;42.158;24.732;2023-09-19T11:36:09;4.90;;;4.40;;
8050;SDS011;4068;42.158;24.732;2023-09-19T11:44:31;10.50;;;5.20;;
8050;SDS011;4068;42.158;24.732;2023-09-19T11:49:23;6.93;;;4.22;;
8050;SDS011;4068;42.158;24.732;2023-09-19T11:51:55;11.10;;;4.45;;
8050;SDS011;4068;42.158;24.732;2023-09-19T11:54:21;6.80;;;4.55;;
8050;SDS011;4068;42.158;24.732;2023-09-19T11:56:53;5.75;;;4.00;;
8050;SDS011;4068;42.158;24.732;2023-09-19T11:59:22;8.52;;;4.38;;
8050;SDS011;4068;42.158;24.732;2023-09-19T12:01:53;8.07;;;4.22;;
8050;SDS011;4068;42.158;24.732;2023-09-19T12:04:19;5.60;;;4.38;;
8050;SDS011;4068;42.158;24.732;2023-09-19T12:07:07;4.45;;;4.00;;
8050;SDS011;4068;42.158;24.732;2023-09-19T12:09:43;6.40;;;4.18;;
8050;SDS011;4068;42.158;24.732;2023-09-19T12:12:19;7.20;;;4.90;;
8050;SDS011;4068;42.158;24.732;2023-09-19T12:14:49;6.00;;;4.57;;
8050;SDS011;4068;42.158;24.732;2023-09-19T12:17:15;9.02;;;4.93;;
8050;SDS011;4068;42.158;24.732;2023-09-19T12:19:50;10.38;;;4.28;;
8050;SDS011;4068;42.158;24.732;2023-09-19T12:22:20;7.05;;;4.53;;
8050;SDS011;4068;42.158;24.732;2023-09-19T12:24:46;12.30;;;4.70;;
8050;SDS011;4068;42.158;24.732;2023-09-19T12:27:12;7.78;;;4.65;;
8050;SDS011;4068;42.158;24.732;2023-09-19T12:29:44;7.68;;;4.40;;
8050;SDS011;4068;42.158;24.732;2023-09-19T12:32:12;6.00;;;4.28;;
8050;SDS011;4068;42.158;24.732;2023-09-19T12:34:39;7.90;;;4.40;;
8050;SDS011;4068;42.158;24.732;2023-09-19T12:37:11;6.50;;;4.35;;
8050;SDS011;4068;42.158;24.732;2023-09-19T12:39:46;10.07;;;4.50;;
8050;SDS011;4068;42.158;24.732;2023-09-19T12:42:19;9.15;;;4.38;;
8050;SDS011;4068;42.158;24.732;2023-09-19T12:44:47;5.95;;;4.22;;
8050;SDS011;4068;42.158;24.732;2023-09-19T12:47:15;5.57;;;3.88;;
8050;SDS011;4068;42.158;24.732;2023-09-19T12:52:37;7.18;;;4.13;;
8050;SDS011;4068;42.158;24.732;2023-09-19T12:55:04;9.05;;;4.50;;
8050;SDS011;4068;42.158;24.732;2023-09-19T12:57:31;8.18;;;4.35;;
8050;SDS011;4068;42.158;24.732;2023-09-19T13:00:00;5.88;;;4.15;;
8050;SDS011;4068;42.158;24.732;2023-09-19T13:02:35;11.48;;;5.20;;
8050;SDS011;4068;42.158;24.732;2023-09-19T13:05:01;9.43;;;4.40;;
8050;SDS011;4068;42.158;24.732;2023-09-19T13:07:42;7.00;;;4.70;;
8050;SDS011;4068;42.158;24.732;2023-09-19T13:10:12;8.95;;;4.47;;
8050;SDS011;4068;42.158;24.732;2023-09-19T13:12:41;6.38;;;3.67;;
8050;SDS011;4068;42.158;24.732;2023-09-19T13:15:12;10.15;;;4.45;;
8050;SDS011;4068;42.158;24.732;2023-09-19T13:17:45;11.43;;;3.90;;
8050;SDS011;4068;42.158;24.732;2023-09-19T13:20:25;9.07;;;4.97;;
8050;SDS011;4068;42.158;24.732;2023-09-19T13:22:57;7.55;;;4.80;;
8050;SDS011;4068;42.158;24.732;2023-09-19T13:25:33;8.63;;;4.78;;
8050;SDS011;4068;42.158;24.732;2023-09-19T13:28:00;10.00;;;4.20;;
8050;SDS011;4068;42.158;24.732;2023-09-19T13:30:29;4.78;;;4.28;;
8050;SDS011;4068;42.158;24.732;2023-09-19T13:33:06;6.43;;;4.43;;
8050;SDS011;4068;42.158;24.732;2023-09-19T13:35:34;9.50;;;5.25;;
8050;SDS011;4068;42.158;24.732;2023-09-19T13:38:01;4.43;;;3.95;;
8050;SDS011;4068;42.158;24.732;2023-09-19T13:40:27;5.25;;;4.30;;
8050;SDS011;4068;42.158;24.732;2023-09-19T13:42:55;8.63;;;4.53;;
8050;SDS011;4068;42.158;24.732;2023-09-19T13:45:21;6.15;;;4.53;;
8050;SDS011;4068;42.158;24.732;2023-09-19T13:47:49;4.38;;;3.75;;
8050;SDS011;4068;42.158;24.732;2023-09-19T13:50:15;4.43;;;3.65;;
8050;SDS011;4068;42.158;24.732;2023-09-19T13:52:41;10.25;;;4.85;;
8050;SDS011;4068;42.158;24.732;2023-09-19T13:55:07;6.50;;;3.97;;
8050;SDS011;4068;42.158;24.732;2023-09-19T13:57:33;8.63;;;4.53;;
8050;SDS011;4068;42.158;24.732;2023-09-19T13:59:58;8.40;;;5.88;;
8050;SDS011;4068;42.158;24.732;2023-09-19T14:02:24;6.53;;;4.20;;
8050;SDS011;4068;42.158;24.732;2023-09-19T14:04:50;8.15;;;5.05;;
8050;SDS011;4068;42.158;24.732;2023-09-19T14:07:16;5.63;;;4.03;;
8050;SDS011;4068;42.158;24.732;2023-09-19T14:09:42;5.78;;;3.97;;
8050;SDS011;4068;42.158;24.732;2023-09-19T14:12:08;7.72;;;4.03;;
8050;SDS011;4068;42.158;24.732;2023-09-19T14:14:34;7.65;;;4.25;;
8050;SDS011;4068;42.158;24.732;2023-09-19T14:16:59;4.85;;;3.95;;
8050;SDS011;4068;42.158;24.732;2023-09-19T14:19:26;8.02;;;4.20;;
8050;SDS011;4068;42.158;24.732;2023-09-19T14:21:52;8.90;;;5.10;;
8050;SDS011;4068;42.158;24.732;2023-09-19T14:24:20;6.93;;;4.50;;
8050;SDS011;4068;42.158;24.732;2023-09-19T14:26:46;7.13;;;4.85;;
8050;SDS011;4068;42.158;24.732;2023-09-19T14:29:11;6.88;;;4.28;;
8050;SDS011;4068;42.158;24.732;2023-09-19T14:31:38;4.53;;;4.10;;
8050;SDS011;4068;42.158;24.732;2023-09-19T14:34:07;5.57;;;4.35;;
8050;SDS011;4068;42.158;24.732;2023-09-19T14:36:36;8.05;;;5.13;;
8050;SDS011;4068;42.158;24.732;2023-09-19T14:39:03;8.05;;;4.95;;
8050;SDS011;4068;42.158;24.732;2023-09-19T14:41:29;13.68;;;7.50;;
8050;SDS011;4068;42.158;24.732;2023-09-19T14:43:56;11.10;;;5.82;;
8050;SDS011;4068;42.158;24.732;2023-09-19T14:46:21;6.50;;;4.20;;
8050;SDS011;4068;42.158;24.732;2023-09-19T14:48:49;10.95;;;5.03;;
8050;SDS011;4068;42.158;24.732;2023-09-19T14:51:16;10.38;;;5.10;;
8050;SDS011;4068;42.158;24.732;2023-09-19T14:53:44;7.75;;;5.00;;
8050;SDS011;4068;42.158;24.732;2023-09-19T14:56:10;7.03;;;4.30;;
8050;SDS011;4068;42.158;24.732;2023-09-19T14:58:36;8.07;;;4.53;;
8050;SDS011;4068;42.158;24.732;2023-09-19T15:01:04;6.53;;;4.50;;
8050;SDS011;4068;42.158;24.732;2023-09-19T15:03:33;7.22;;;4.18;;
8050;SDS011;4068;42.158;24.732;2023-09-19T15:06:04;5.85;;;4.28;;
8050;SDS011;4068;42.158;24.732;2023-09-19T15:08:37;10.52;;;4.57;;
8050;SDS011;4068;42.158;24.732;2023-09-19T15:11:06;10.00;;;4.85;;
8050;SDS011;4068;42.158;24.732;2023-09-19T15:13:34;10.77;;;7.32;;
8050;SDS011;4068;42.158;24.732;2023-09-19T15:16:03;10.50;;;6.82;;
8050;SDS011;4068;42.158;24.732;2023-09-19T15:18:33;13.15;;;5.18;;
8050;SDS011;4068;42.158;24.732;2023-09-19T15:21:05;9.55;;;5.13;;
8050;SDS011;4068;42.158;24.732;2023-09-19T15:23:32;9.32;;;5.28;;
8050;SDS011;4068;42.158;24.732;2023-09-19T15:25:59;10.60;;;5.10;;
8050;SDS011;4068;42.158;24.732;2023-09-19T15:28:26;8.40;;;4.95;;
8050;SDS011;4068;42.158;24.732;2023-09-19T15:31:06;13.38;;;9.13;;
8050;SDS011;4068;42.158;24.732;2023-09-19T15:33:33;12.77;;;5.90;;
8050;SDS011;4068;42.158;24.732;2023-09-19T15:41:17;11.15;;;5.03;;
8050;SDS011;4068;42.158;24.732;2023-09-19T15:43:42;10.85;;;5.03;;
8050;SDS011;4068;42.158;24.732;2023-09-19T15:46:07;8.60;;;4.43;;
8050;SDS011;4068;42.158;24.732;2023-09-19T15:48:33;9.88;;;4.88;;
8050;SDS011;4068;42.158;24.732;2023-09-19T15:51:02;7.70;;;4.95;;
8050;SDS011;4068;42.158;24.732;2023-09-19T15:53:30;7.85;;;6.07;;
8050;SDS011;4068;42.158;24.732;2023-09-19T15:56:12;7.57;;;4.85;;
8050;SDS011;4068;42.158;24.732;2023-09-19T15:58:41;12.73;;;5.28;;
8050;SDS011;4068;42.158;24.732;2023-09-19T16:01:08;8.63;;;5.65;;
8050;SDS011;4068;42.158;24.732;2023-09-19T16:03:37;11.55;;;5.32;;
8050;SDS011;4068;42.158;24.732;2023-09-19T16:08:42;12.15;;;6.47;;
8050;SDS011;4068;42.158;24.732;2023-09-19T16:11:08;16.60;;;6.65;;
8050;SDS011;4068;42.158;24.732;2023-09-19T16:13:36;15.30;;;7.38;;
8050;SDS011;4068;42.158;24.732;2023-09-19T16:16:02;17.33;;;6.22;;
8050;SDS011;4068;42.158;24.732;2023-09-19T16:18:28;12.20;;;6.53;;